Bobby Golding — WDH2183 — position and weather

sailwx.info

Track history (hours):
 
Tides and Currents Weather Stations Pressure Air Temp Water Temp Dewpoint Dewpoint Depression Visibility Wind Speed Wind Dir Waves Ship Positions

Bobby Golding

Owner: GOLDING BARGE LINE, INC, VICKSBURG, MS. More information available from US FCC via Universal Licensing System and Coast Guard Vessel Documentation Center.

Last reported at 2017-Dec-08 21:35 UTC. Time now 2017-Dec-15 20:00 UTC.
Position N 29°46' W 095°06'.

Length 208 m; draft 2.7 m.

Type: . MMSI: 367595180.

Date/timePositionNaut miles runAvg speedWind from/ knotsBaromVisibWave heightAir tempDewpointWater temp
2017-Dec-08 21:35N 29°46' W 095°06'1 0.6
2017-Dec-08 19:32N 29°46' W 095°05'0 3.3
2017-Dec-08 19:23N 29°46' W 095°05'2 4.5
2017-Dec-08 19:00N 29°44' W 095°04'3 5.1
2017-Dec-08 18:30N 29°43' W 095°01'2 4.1
2017-Dec-08 18:00N 29°42' W 094°59'4 7.2
2017-Dec-08 17:30N 29°38' W 094°58'5 7.4
2017-Dec-08 16:53N 29°34' W 094°55'69 3.2
2017-Dec-07 19:24N 30°03' W 093°43'2 5.3
2017-Dec-07 18:59N 30°04' W 093°41'2 4.8
2017-Dec-07 18:29N 30°04' W 093°38'2 5.0
2017-Dec-07 18:00N 30°04' W 093°35'2 4.7
2017-Dec-07 17:30N 30°04' W 093°32'2 4.6
2017-Dec-07 17:00N 30°04' W 093°30'2 4.5
2017-Dec-07 16:30N 30°04' W 093°27'2 4.4
2017-Dec-07 16:00N 30°04' W 093°25'2 4.4
2017-Dec-07 15:30N 30°04' W 093°22'2 3.2
2017-Dec-07 15:00N 30°04' W 093°20'2 4.2
2017-Dec-07 14:30N 30°06' W 093°20'3 6.2
2017-Dec-07 14:00N 30°10' W 093°19'3 5.6
2017-Dec-07 13:30N 30°12' W 093°17'2 4.7
2017-Dec-07 13:00N 30°13' W 093°16'0 1.0
2017-Dec-07 12:30N 30°14' W 093°15'0 0.3
2017-Dec-07 12:00N 30°14' W 093°15'0 0.0
2017-Dec-07 11:30N 30°14' W 093°15'0 0.0
2017-Dec-07 11:00N 30°14' W 093°15'0 0.0
2017-Dec-07 10:30N 30°14' W 093°15'0 0.0
2017-Dec-07 10:00N 30°14' W 093°15'0 0.0
2017-Dec-07 09:30N 30°14' W 093°15'0 0.0
2017-Dec-07 09:00N 30°14' W 093°15'0 0.0
2017-Dec-07 08:30N 30°14' W 093°15'0 0.0
2017-Dec-07 08:00N 30°14' W 093°15'0 0.0
2017-Dec-07 07:30N 30°14' W 093°15'0 0.0
2017-Dec-07 07:00N 30°14' W 093°15'0 0.0
2017-Dec-07 06:29N 30°14' W 093°15'0 0.0
2017-Dec-07 05:58N 30°14' W 093°15'0 0.0
2017-Dec-07 05:21N 30°14' W 093°15'0 0.0
2017-Dec-07 05:00N 30°14' W 093°15'0 0.0
2017-Dec-07 04:30N 30°14' W 093°15'0 0.0
2017-Dec-07 04:00N 30°14' W 093°15'0 0.0
2017-Dec-07 03:30N 30°14' W 093°15'0 0.0
2017-Dec-07 03:00N 30°14' W 093°15'0 0.0
2017-Dec-07 02:30N 30°14' W 093°15'0 0.0
2017-Dec-07 02:00N 30°14' W 093°15'0 0.0
2017-Dec-06 23:11N 30°14' W 093°15'0 0.0
2017-Dec-06 23:00N 30°14' W 093°15'0 0.0
2017-Dec-06 22:30N 30°14' W 093°15'0 0.0
2017-Dec-06 22:00N 30°14' W 093°15'0 0.0
2017-Dec-06 21:30N 30°14' W 093°15'0 0.0
2017-Dec-06 21:00N 30°14' W 093°15'  
2017-Dec-04 10:30N 30°13' W 093°16'0 0.0
2017-Dec-04 10:00N 30°13' W 093°16'0 0.0
2017-Dec-04 09:30N 30°13' W 093°16'0 0.0
2017-Dec-04 09:00N 30°13' W 093°16'0 0.0
2017-Dec-04 08:30N 30°13' W 093°16'0 0.0
2017-Dec-04 08:00N 30°13' W 093°16'0 0.0
2017-Dec-04 07:30N 30°13' W 093°16'0 0.0
2017-Dec-04 07:00N 30°13' W 093°16'0 0.0
2017-Dec-04 06:30N 30°13' W 093°16'0 0.0
2017-Dec-04 06:00N 30°13' W 093°16'0 0.0
2017-Dec-04 05:30N 30°13' W 093°16'0 0.0
2017-Dec-04 05:00N 30°13' W 093°16'0 0.0
2017-Dec-04 04:30N 30°13' W 093°16'0 0.0
2017-Dec-04 04:00N 30°13' W 093°16'0 0.0
2017-Dec-04 03:30N 30°13' W 093°16'0 0.0
2017-Dec-04 03:00N 30°13' W 093°16'0 0.0
2017-Dec-04 02:30N 30°13' W 093°16'0 0.0
2017-Dec-04 02:00N 30°13' W 093°16'0 0.0
2017-Dec-04 01:30N 30°13' W 093°16'0 0.0
2017-Dec-04 01:00N 30°13' W 093°16'0 0.0
2017-Dec-04 00:30N 30°13' W 093°16'0 0.0
2017-Dec-03 23:59N 30°13' W 093°16'0 0.0
2017-Dec-03 23:27N 30°13' W 093°16'0 0.0
2017-Dec-03 22:56N 30°13' W 093°16'0 0.2
2017-Dec-03 22:30N 30°13' W 093°16'0 0.6
2017-Dec-03 22:00N 30°13' W 093°16'1 1.4
2017-Dec-03 21:29N 30°12' W 093°16'3 5.7
2017-Dec-03 21:00N 30°11' W 093°19'2 4.9
2017-Dec-03 20:30N 30°09' W 093°20'3 5.1
2017-Dec-03 20:00N 30°06' W 093°20'2 3.8
2017-Dec-03 19:30N 30°04' W 093°21'1 2.4
2017-Dec-03 19:00N 30°04' W 093°22'2 4.0
2017-Dec-03 18:30N 30°04' W 093°24'2 4.8
2017-Dec-03 18:00N 30°04' W 093°27'2 4.8
2017-Dec-03 17:30N 30°04' W 093°30'2 4.7
2017-Dec-03 17:00N 30°04' W 093°32'2 4.6
2017-Dec-03 16:30N 30°04' W 093°35'2 4.3
2017-Dec-03 15:57N 30°04' W 093°38'2 3.8
2017-Dec-03 15:30N 30°04' W 093°40'0 0.1
2017-Dec-03 15:00N 30°03' W 093°40'0 0.0
2017-Dec-03 14:24N 30°03' W 093°40'0 0.0
2017-Dec-03 13:50N 30°03' W 093°40'0 0.0
2017-Dec-03 12:58N 30°03' W 093°40'0 0.0
2017-Dec-03 12:29N 30°03' W 093°40'0 0.0
2017-Dec-03 12:00N 30°03' W 093°40'0 0.0
2017-Dec-03 10:51N 30°04' W 093°40'0 0.0
2017-Dec-03 10:30N 30°03' W 093°40'0 0.0
2017-Dec-03 09:58N 30°04' W 093°40'0 0.0
2017-Dec-03 09:30N 30°03' W 093°40'0 0.0
2017-Dec-03 08:55N 30°04' W 093°40'0 0.0
2017-Dec-03 08:08N 30°03' W 093°40'0 0.1
2017-Dec-03 08:00N 30°04' W 093°40'1 2.1
2017-Dec-03 07:30N 30°04' W 093°41'70 4.2
2017-Dec-02 14:41N 29°30' W 094°52'1 8.1
2017-Dec-02 14:30N 29°31' W 094°53'4 7.6
2017-Dec-02 14:00N 29°34' W 094°56'3 6.4
2017-Dec-02 13:30N 29°37' W 094°57'4 7.3
2017-Dec-02 13:00N 29°41' W 094°59'3 6.8
2017-Dec-02 12:29N 29°43' W 095°01'4 6.8
2017-Dec-02 11:53N 29°46' W 095°05'3 5.6
2017-Dec-02 11:24N 29°44' W 095°07'3 5.5
2017-Dec-02 10:57N 29°45' W 095°10'3 5.2
2017-Dec-02 10:23N 29°43' W 095°13'1 0.8
2017-Dec-02 09:04N 29°43' W 095°14'0 0.7
2017-Dec-02 09:00N 29°43' W 095°14'0 0.1
2017-Dec-02 08:28N 29°43' W 095°14'0 0.0
2017-Dec-02 08:00N 29°43' W 095°14'0 0.0
2017-Dec-02 07:22N 29°43' W 095°14'0 0.0
2017-Dec-02 06:17N 29°43' W 095°14'0 0.0
2017-Dec-02 05:58N 29°43' W 095°14'0 0.0
2017-Dec-02 04:41N 29°43' W 095°14'0 0.0
2017-Dec-02 04:25N 29°43' W 095°14'0 0.0
2017-Dec-02 03:58N 29°43' W 095°14'0 0.0
2017-Dec-02 03:26N 29°43' W 095°14'0 0.0
2017-Dec-02 02:57N 29°43' W 095°14'0 0.0
2017-Dec-02 02:30N 29°43' W 095°14'0 0.0
2017-Dec-02 01:59N 29°43' W 095°14'0 0.0
2017-Dec-02 01:30N 29°43' W 095°14'0 0.0
2017-Dec-02 00:59N 29°43' W 095°14'0 0.0
2017-Dec-02 00:26N 29°43' W 095°14'1 0.1
2017-Dec-01 14:47N 29°43' W 095°13'0 1.0
2017-Dec-01 14:30N 29°44' W 095°14'1 0.2
2017-Dec-01 11:22N 29°43' W 095°14'0 1.2
2017-Dec-01 10:57N 29°43' W 095°14'3 5.9
2017-Dec-01 10:30N 29°45' W 095°11'7 3.2
2017-Dec-01 08:23N 29°47' W 095°04'2 3.0
2017-Dec-01 07:47N 29°46' W 095°05'1 0.8
2017-Dec-01 06:27N 29°46' W 095°06'0 0.0
2017-Dec-01 05:56N 29°46' W 095°06'0 0.0
2017-Dec-01 05:23N 29°46' W 095°06'0 0.0
2017-Dec-01 04:51N 29°46' W 095°06'0 0.0
2017-Dec-01 04:27N 29°46' W 095°06'0 0.0
2017-Dec-01 04:00N 29°46' W 095°06'0 0.0
2017-Dec-01 03:27N 29°46' W 095°06'0 0.0
2017-Nov-30 14:08N 29°46' W 095°06'0 0.0
2017-Nov-30 13:46N 29°46' W 095°06'0 0.0
2017-Nov-30 13:30N 29°46' W 095°06'0 0.0
2017-Nov-30 13:00N 29°46' W 095°06'0 0.0
2017-Nov-30 12:14N 29°46' W 095°06'0 0.0
2017-Nov-30 12:00N 29°46' W 095°06'0 0.0
2017-Nov-30 11:22N 29°46' W 095°06'0 0.0
2017-Nov-30 11:00N 29°46' W 095°06'0 0.0
2017-Nov-30 10:30N 29°46' W 095°06'0 0.0
2017-Nov-30 10:00N 29°46' W 095°06'0 0.0
2017-Nov-30 09:30N 29°46' W 095°06'0 0.0
2017-Nov-30 09:00N 29°46' W 095°06'0 0.0
2017-Nov-30 08:30N 29°46' W 095°06'0 0.0
2017-Nov-30 08:00N 29°46' W 095°06'0 0.0
2017-Nov-30 07:30N 29°46' W 095°06'0 0.0
2017-Nov-30 06:59N 29°46' W 095°06'0 0.0
2017-Nov-30 06:30N 29°46' W 095°06'0 0.0
2017-Nov-30 06:00N 29°46' W 095°06'0 0.0
2017-Nov-30 05:30N 29°46' W 095°06'0 0.0
2017-Nov-30 05:00N 29°46' W 095°06'0 0.0
2017-Nov-30 04:28N 29°46' W 095°06'0 0.0
2017-Nov-30 03:53N 29°46' W 095°06'0 0.0
2017-Nov-29 13:13N 29°46' W 095°06'0 0.0
2017-Nov-29 12:58N 29°46' W 095°06'0 0.0
2017-Nov-29 09:54N 29°46' W 095°06'0 0.0
2017-Nov-29 09:21N 29°46' W 095°06'0 0.0
2017-Nov-29 08:18N 29°46' W 095°06'0 0.0
2017-Nov-29 08:00N 29°46' W 095°06'0 0.0
2017-Nov-29 06:33N 29°46' W 095°06'0 0.0
2017-Nov-29 06:22N 29°46' W 095°06'0 0.0
2017-Nov-29 04:06N 29°46' W 095°06'0 0.0
2017-Nov-29 03:59N 29°46' W 095°06'0 0.0
2017-Nov-29 03:18N 29°46' W 095°06'  
Track history (hours):
 
Tides and Currents Weather Stations Pressure Air Temp Water Temp Dewpoint Dewpoint Depression Visibility Wind Speed Wind Dir Waves Ship Positions

Bobby Golding

Owner: GOLDING BARGE LINE, INC, VICKSBURG, MS. More information available from US FCC via Universal Licensing System and Coast Guard Vessel Documentation Center.

Last reported at 2017-Dec-08 21:35 UTC. Time now 2017-Dec-15 20:00 UTC.
Position N 29°46' W 095°06'.

Length 208 m; draft 2.7 m.

Type: . MMSI: 367595180.

Date/timePositionNaut miles runAvg speedWind from/ knotsBaromVisibWave heightAir tempDewpointWater temp
2017-Dec-08 21:35N 29°46' W 095°06'1 0.6
2017-Dec-08 19:32N 29°46' W 095°05'0 3.3
2017-Dec-08 19:23N 29°46' W 095°05'2 4.5
2017-Dec-08 19:00N 29°44' W 095°04'3 5.1
2017-Dec-08 18:30N 29°43' W 095°01'2 4.1
2017-Dec-08 18:00N 29°42' W 094°59'4 7.2
2017-Dec-08 17:30N 29°38' W 094°58'5 7.4
2017-Dec-08 16:53N 29°34' W 094°55'69 3.2
2017-Dec-07 19:24N 30°03' W 093°43'2 5.3
2017-Dec-07 18:59N 30°04' W 093°41'2 4.8
2017-Dec-07 18:29N 30°04' W 093°38'2 5.0
2017-Dec-07 18:00N 30°04' W 093°35'2 4.7
2017-Dec-07 17:30N 30°04' W 093°32'2 4.6
2017-Dec-07 17:00N 30°04' W 093°30'2 4.5
2017-Dec-07 16:30N 30°04' W 093°27'2 4.4
2017-Dec-07 16:00N 30°04' W 093°25'2 4.4
2017-Dec-07 15:30N 30°04' W 093°22'2 3.2
2017-Dec-07 15:00N 30°04' W 093°20'2 4.2
2017-Dec-07 14:30N 30°06' W 093°20'3 6.2
2017-Dec-07 14:00N 30°10' W 093°19'3 5.6
2017-Dec-07 13:30N 30°12' W 093°17'2 4.7
2017-Dec-07 13:00N 30°13' W 093°16'0 1.0
2017-Dec-07 12:30N 30°14' W 093°15'0 0.3
2017-Dec-07 12:00N 30°14' W 093°15'0 0.0
2017-Dec-07 11:30N 30°14' W 093°15'0 0.0
2017-Dec-07 11:00N 30°14' W 093°15'0 0.0
2017-Dec-07 10:30N 30°14' W 093°15'0 0.0
2017-Dec-07 10:00N 30°14' W 093°15'0 0.0
2017-Dec-07 09:30N 30°14' W 093°15'0 0.0
2017-Dec-07 09:00N 30°14' W 093°15'0 0.0
2017-Dec-07 08:30N 30°14' W 093°15'0 0.0
2017-Dec-07 08:00N 30°14' W 093°15'0 0.0
2017-Dec-07 07:30N 30°14' W 093°15'0 0.0
2017-Dec-07 07:00N 30°14' W 093°15'0 0.0
2017-Dec-07 06:29N 30°14' W 093°15'0 0.0
2017-Dec-07 05:58N 30°14' W 093°15'0 0.0
2017-Dec-07 05:21N 30°14' W 093°15'0 0.0
2017-Dec-07 05:00N 30°14' W 093°15'0 0.0
2017-Dec-07 04:30N 30°14' W 093°15'0 0.0
2017-Dec-07 04:00N 30°14' W 093°15'0 0.0
2017-Dec-07 03:30N 30°14' W 093°15'0 0.0
2017-Dec-07 03:00N 30°14' W 093°15'0 0.0
2017-Dec-07 02:30N 30°14' W 093°15'0 0.0
2017-Dec-07 02:00N 30°14' W 093°15'0 0.0
2017-Dec-06 23:11N 30°14' W 093°15'0 0.0
2017-Dec-06 23:00N 30°14' W 093°15'0 0.0
2017-Dec-06 22:30N 30°14' W 093°15'0 0.0
2017-Dec-06 22:00N 30°14' W 093°15'0 0.0
2017-Dec-06 21:30N 30°14' W 093°15'0 0.0
2017-Dec-06 21:00N 30°14' W 093°15'  
2017-Dec-04 10:30N 30°13' W 093°16'0 0.0
2017-Dec-04 10:00N 30°13' W 093°16'0 0.0
2017-Dec-04 09:30N 30°13' W 093°16'0 0.0
2017-Dec-04 09:00N 30°13' W 093°16'0 0.0
2017-Dec-04 08:30N 30°13' W 093°16'0 0.0
2017-Dec-04 08:00N 30°13' W 093°16'0 0.0
2017-Dec-04 07:30N 30°13' W 093°16'0 0.0
2017-Dec-04 07:00N 30°13' W 093°16'0 0.0
2017-Dec-04 06:30N 30°13' W 093°16'0 0.0
2017-Dec-04 06:00N 30°13' W 093°16'0 0.0
2017-Dec-04 05:30N 30°13' W 093°16'0 0.0
2017-Dec-04 05:00N 30°13' W 093°16'0 0.0
2017-Dec-04 04:30N 30°13' W 093°16'0 0.0
2017-Dec-04 04:00N 30°13' W 093°16'0 0.0
2017-Dec-04 03:30N 30°13' W 093°16'0 0.0
2017-Dec-04 03:00N 30°13' W 093°16'0 0.0
2017-Dec-04 02:30N 30°13' W 093°16'0 0.0
2017-Dec-04 02:00N 30°13' W 093°16'0 0.0
2017-Dec-04 01:30N 30°13' W 093°16'0 0.0
2017-Dec-04 01:00N 30°13' W 093°16'0 0.0
2017-Dec-04 00:30N 30°13' W 093°16'0 0.0
2017-Dec-03 23:59N 30°13' W 093°16'0 0.0
2017-Dec-03 23:27N 30°13' W 093°16'0 0.0
2017-Dec-03 22:56N 30°13' W 093°16'0 0.2
2017-Dec-03 22:30N 30°13' W 093°16'0 0.6
2017-Dec-03 22:00N 30°13' W 093°16'1 1.4
2017-Dec-03 21:29N 30°12' W 093°16'3 5.7
2017-Dec-03 21:00N 30°11' W 093°19'2 4.9
2017-Dec-03 20:30N 30°09' W 093°20'3 5.1
2017-Dec-03 20:00N 30°06' W 093°20'2 3.8
2017-Dec-03 19:30N 30°04' W 093°21'1 2.4
2017-Dec-03 19:00N 30°04' W 093°22'2 4.0
2017-Dec-03 18:30N 30°04' W 093°24'2 4.8
2017-Dec-03 18:00N 30°04' W 093°27'2 4.8
2017-Dec-03 17:30N 30°04' W 093°30'2 4.7
2017-Dec-03 17:00N 30°04' W 093°32'2 4.6
2017-Dec-03 16:30N 30°04' W 093°35'2 4.3
2017-Dec-03 15:57N 30°04' W 093°38'2 3.8
2017-Dec-03 15:30N 30°04' W 093°40'0 0.1
2017-Dec-03 15:00N 30°03' W 093°40'0 0.0
2017-Dec-03 14:24N 30°03' W 093°40'0 0.0
2017-Dec-03 13:50N 30°03' W 093°40'0 0.0
2017-Dec-03 12:58N 30°03' W 093°40'0 0.0
2017-Dec-03 12:29N 30°03' W 093°40'0 0.0
2017-Dec-03 12:00N 30°03' W 093°40'0 0.0
2017-Dec-03 10:51N 30°04' W 093°40'0 0.0
2017-Dec-03 10:30N 30°03' W 093°40'0 0.0
2017-Dec-03 09:58N 30°04' W 093°40'0 0.0
2017-Dec-03 09:30N 30°03' W 093°40'0 0.0
2017-Dec-03 08:55N 30°04' W 093°40'0 0.0
2017-Dec-03 08:08N 30°03' W 093°40'0 0.1
2017-Dec-03 08:00N 30°04' W 093°40'1 2.1
2017-Dec-03 07:30N 30°04' W 093°41'70 4.2
2017-Dec-02 14:41N 29°30' W 094°52'1 8.1
2017-Dec-02 14:30N 29°31' W 094°53'4 7.6
2017-Dec-02 14:00N 29°34' W 094°56'3 6.4
2017-Dec-02 13:30N 29°37' W 094°57'4 7.3
2017-Dec-02 13:00N 29°41' W 094°59'3 6.8
2017-Dec-02 12:29N 29°43' W 095°01'4 6.8
2017-Dec-02 11:53N 29°46' W 095°05'3 5.6
2017-Dec-02 11:24N 29°44' W 095°07'3 5.5
2017-Dec-02 10:57N 29°45' W 095°10'3 5.2
2017-Dec-02 10:23N 29°43' W 095°13'1 0.8
2017-Dec-02 09:04N 29°43' W 095°14'0 0.7
2017-Dec-02 09:00N 29°43' W 095°14'0 0.1
2017-Dec-02 08:28N 29°43' W 095°14'0 0.0
2017-Dec-02 08:00N 29°43' W 095°14'0 0.0
2017-Dec-02 07:22N 29°43' W 095°14'0 0.0
2017-Dec-02 06:17N 29°43' W 095°14'0 0.0
2017-Dec-02 05:58N 29°43' W 095°14'0 0.0
2017-Dec-02 04:41N 29°43' W 095°14'0 0.0
2017-Dec-02 04:25N 29°43' W 095°14'0 0.0
2017-Dec-02 03:58N 29°43' W 095°14'0 0.0
2017-Dec-02 03:26N 29°43' W 095°14'0 0.0
2017-Dec-02 02:57N 29°43' W 095°14'0 0.0
2017-Dec-02 02:30N 29°43' W 095°14'0 0.0
2017-Dec-02 01:59N 29°43' W 095°14'0 0.0
2017-Dec-02 01:30N 29°43' W 095°14'0 0.0
2017-Dec-02 00:59N 29°43' W 095°14'0 0.0
2017-Dec-02 00:26N 29°43' W 095°14'1 0.1
2017-Dec-01 14:47N 29°43' W 095°13'0 1.0
2017-Dec-01 14:30N 29°44' W 095°14'1 0.2
2017-Dec-01 11:22N 29°43' W 095°14'0 1.2
2017-Dec-01 10:57N 29°43' W 095°14'3 5.9
2017-Dec-01 10:30N 29°45' W 095°11'7 3.2
2017-Dec-01 08:23N 29°47' W 095°04'2 3.0
2017-Dec-01 07:47N 29°46' W 095°05'1 0.8
2017-Dec-01 06:27N 29°46' W 095°06'0 0.0
2017-Dec-01 05:56N 29°46' W 095°06'0 0.0
2017-Dec-01 05:23N 29°46' W 095°06'0 0.0
2017-Dec-01 04:51N 29°46' W 095°06'0 0.0
2017-Dec-01 04:27N 29°46' W 095°06'0 0.0
2017-Dec-01 04:00N 29°46' W 095°06'0 0.0
2017-Dec-01 03:27N 29°46' W 095°06'0 0.0
2017-Nov-30 14:08N 29°46' W 095°06'0 0.0
2017-Nov-30 13:46N 29°46' W 095°06'0 0.0
2017-Nov-30 13:30N 29°46' W 095°06'0 0.0
2017-Nov-30 13:00N 29°46' W 095°06'0 0.0
2017-Nov-30 12:14N 29°46' W 095°06'0 0.0
2017-Nov-30 12:00N 29°46' W 095°06'0 0.0
2017-Nov-30 11:22N 29°46' W 095°06'0 0.0
2017-Nov-30 11:00N 29°46' W 095°06'0 0.0
2017-Nov-30 10:30N 29°46' W 095°06'0 0.0
2017-Nov-30 10:00N 29°46' W 095°06'0 0.0
2017-Nov-30 09:30N 29°46' W 095°06'0 0.0
2017-Nov-30 09:00N 29°46' W 095°06'0 0.0
2017-Nov-30 08:30N 29°46' W 095°06'0 0.0
2017-Nov-30 08:00N 29°46' W 095°06'0 0.0
2017-Nov-30 07:30N 29°46' W 095°06'0 0.0
2017-Nov-30 06:59N 29°46' W 095°06'0 0.0
2017-Nov-30 06:30N 29°46' W 095°06'0 0.0
2017-Nov-30 06:00N 29°46' W 095°06'0 0.0
2017-Nov-30 05:30N 29°46' W 095°06'0 0.0
2017-Nov-30 05:00N 29°46' W 095°06'0 0.0
2017-Nov-30 04:28N 29°46' W 095°06'0 0.0
2017-Nov-30 03:53N 29°46' W 095°06'0 0.0
2017-Nov-29 13:13N 29°46' W 095°06'0 0.0
2017-Nov-29 12:58N 29°46' W 095°06'0 0.0
2017-Nov-29 09:54N 29°46' W 095°06'0 0.0
2017-Nov-29 09:21N 29°46' W 095°06'0 0.0
2017-Nov-29 08:18N 29°46' W 095°06'0 0.0
2017-Nov-29 08:00N 29°46' W 095°06'0 0.0
2017-Nov-29 06:33N 29°46' W 095°06'0 0.0
2017-Nov-29 06:22N 29°46' W 095°06'0 0.0
2017-Nov-29 04:06N 29°46' W 095°06'0 0.0
2017-Nov-29 03:59N 29°46' W 095°06'0 0.0
2017-Nov-29 03:18N 29°46' W 095°06'  

Dump ship's entire track history